createdAt,value
2022-08-07T00:00:52.969Z,69.35
2022-08-07T00:03:25.614Z,69.52
2022-08-07T00:05:54.268Z,69.69
2022-08-07T00:08:25.328Z,69.63
2022-08-07T00:10:57.261Z,69.72
2022-08-07T00:13:26.765Z,69.97
2022-08-07T00:15:55.751Z,69.91
2022-08-07T00:18:26.503Z,69.81
2022-08-07T00:21:01.897Z,70.06
2022-08-07T00:23:32.459Z,70.01
2022-08-07T00:26:13.064Z,70.01
2022-08-07T00:28:56.455Z,70.02
2022-08-07T00:31:37.473Z,70.17
2022-08-07T00:34:08.808Z,70.27
2022-08-07T00:36:43.374Z,70.44
2022-08-07T00:39:16.929Z,70.61
2022-08-07T00:42:01.988Z,70.69
2022-08-07T00:44:34.765Z,70.65
2022-08-07T00:47:15.950Z,70.79
2022-08-07T00:50:19.006Z,70.93
2022-08-07T00:52:42.835Z,71.20
2022-08-07T00:55:17.261Z,71.05
2022-08-07T00:57:55.390Z,71.07
2022-08-07T01:00:24.774Z,70.91
2022-08-07T01:02:52.619Z,71.23
2022-08-07T01:05:20.989Z,71.59
2022-08-07T01:07:52.757Z,71.62
2022-08-07T01:10:23.115Z,71.70
2022-08-07T01:12:54.708Z,71.60
2022-08-07T01:15:35.708Z,71.76
2022-08-07T01:18:17.689Z,71.89
2022-08-07T01:20:59.138Z,72.04
2022-08-07T01:23:36.333Z,72.25
2022-08-07T01:26:08.281Z,72.32
2022-08-07T01:28:46.217Z,72.30
2022-08-07T01:31:18.048Z,72.18
2022-08-07T01:33:55.553Z,72.21
2022-08-07T01:36:33.614Z,72.51
2022-08-07T01:39:09.890Z,72.42
2022-08-07T01:41:40.886Z,72.46
2022-08-07T01:44:27.776Z,72.49
2022-08-07T01:46:56.101Z,72.61
2022-08-07T01:49:24.153Z,72.82
2022-08-07T01:52:02.015Z,72.94
2022-08-07T01:54:37.619Z,73.08
2022-08-07T01:57:25.067Z,73.16
2022-08-07T02:00:13.285Z,72.92
2022-08-07T02:03:12.585Z,72.98
2022-08-07T02:05:47.824Z,72.73
2022-08-07T02:08:29.559Z,72.80
2022-08-07T02:11:00.337Z,72.96
2022-08-07T02:13:57.964Z,73.23
2022-08-07T02:16:28.612Z,73.35
2022-08-07T02:19:05.724Z,73.36
2022-08-07T02:21:56.620Z,73.37
2022-08-07T02:24:29.340Z,73.20
2022-08-07T02:27:02.456Z,73.62
2022-08-07T02:29:31.893Z,73.77
2022-08-07T02:32:02.545Z,73.70
2022-08-07T02:34:33.838Z,73.87
2022-08-07T02:37:08.341Z,73.90
2022-08-07T02:39:43.418Z,73.74
2022-08-07T02:42:29.857Z,73.79
2022-08-07T02:45:57.353Z,73.99
2022-08-07T02:47:55.195Z,74.10
2022-08-07T02:50:27.108Z,74.18
2022-08-07T02:53:10.893Z,74.13
2022-08-07T02:56:04.054Z,74.41
2022-08-07T02:58:35.604Z,74.27
2022-08-07T03:01:04.196Z,74.35
2022-08-07T03:03:48.942Z,74.32
2022-08-07T03:06:25.504Z,74.55
2022-08-07T03:08:54.511Z,74.67
2022-08-07T03:11:25.329Z,74.44
2022-08-07T03:13:57.517Z,74.64
2022-08-07T03:16:31.085Z,74.86
2022-08-07T03:19:00.434Z,74.99
2022-08-07T03:21:33.213Z,75.08
2022-08-07T03:24:18.256Z,74.83
2022-08-07T03:26:59.114Z,74.92
2022-08-07T03:29:49.589Z,75.18
2022-08-07T03:32:23.360Z,75.40
2022-08-07T03:35:17.043Z,75.48
2022-08-07T03:37:46.154Z,75.78
2022-08-07T03:40:22.353Z,75.66
2022-08-07T03:42:51.606Z,75.51
2022-08-07T03:45:30.636Z,75.59
2022-08-07T03:48:00.631Z,75.74
2022-08-07T03:50:29.766Z,75.75
2022-08-07T03:52:59.669Z,75.89
2022-08-07T03:55:52.744Z,75.90
2022-08-07T03:59:05.321Z,75.88
2022-08-07T04:01:11.179Z,76.09
2022-08-07T04:03:53.361Z,76.04
2022-08-07T04:06:37.740Z,76.13
2022-08-07T04:09:08.475Z,76.21
2022-08-07T04:12:27.984Z,76.06
2022-08-07T04:14:38.635Z,76.16
2022-08-07T04:17:20.080Z,75.82
2022-08-07T04:19:52.011Z,75.99
2022-08-07T04:22:28.887Z,75.85
2022-08-07T04:25:01.622Z,75.98
2022-08-07T04:27:35.840Z,76.25
2022-08-07T04:30:11.749Z,76.37
2022-08-07T04:32:44.959Z,76.46
2022-08-07T04:35:15.853Z,76.51
2022-08-07T04:38:03.106Z,76.48
2022-08-07T04:40:32.436Z,76.48
2022-08-07T04:43:03.278Z,76.36
2022-08-07T04:46:20.090Z,76.14
2022-08-07T04:49:24.814Z,76.29
2022-08-07T04:52:15.691Z,76.08
2022-08-07T04:54:58.071Z,76.11
2022-08-07T04:58:13.923Z,75.85
2022-08-07T05:00:41.011Z,75.89
2022-08-07T05:04:00.036Z,75.59
2022-08-07T05:06:43.532Z,75.40
2022-08-07T05:09:45.430Z,75.45
2022-08-07T05:12:27.141Z,75.17
2022-08-07T05:15:23.554Z,75.00
2022-08-07T05:17:57.954Z,75.13
2022-08-07T05:20:35.102Z,75.24
2022-08-07T05:23:15.332Z,75.23
2022-08-07T05:26:10.782Z,75.24
2022-08-07T05:28:35.572Z,75.03
2022-08-07T05:31:05.452Z,74.96
2022-08-07T05:33:36.995Z,74.92
2022-08-07T05:36:12.077Z,74.77
2022-08-07T05:39:01.419Z,74.62
2022-08-07T05:42:02.959Z,74.33
2022-08-07T05:44:30.942Z,74.25
2022-08-07T05:47:01.107Z,74.19
2022-08-07T05:49:40.884Z,74.06
2022-08-07T05:52:11.744Z,73.85
2022-08-07T05:54:53.438Z,73.44
2022-08-07T05:57:26.634Z,73.15
2022-08-07T06:00:01.308Z,73.10
2022-08-07T06:02:33.223Z,72.94
2022-08-07T06:05:15.773Z,72.74
2022-08-07T06:08:14.237Z,72.53
2022-08-07T06:10:32.442Z,72.22
2022-08-07T06:13:02.269Z,71.54
2022-08-07T06:15:39.352Z,71.41
2022-08-07T06:18:14.015Z,70.93
2022-08-07T06:20:51.165Z,70.37
2022-08-07T06:24:38.365Z,70.06
2022-08-07T06:26:22.041Z,69.55
2022-08-07T06:29:00.015Z,69.04
2022-08-07T06:31:47.237Z,68.19
2022-08-07T06:34:19.621Z,68.07
2022-08-07T06:36:52.194Z,67.68
2022-08-07T06:40:17.434Z,67.61
2022-08-07T06:42:26.627Z,67.13
2022-08-07T06:45:04.321Z,66.69
2022-08-07T06:47:47.912Z,65.71
2022-08-07T06:50:21.455Z,65.38
2022-08-07T06:52:55.895Z,65.80
2022-08-07T06:55:32.464Z,65.77
2022-08-07T06:58:16.678Z,65.96
2022-08-07T07:00:52.912Z,65.43
2022-08-07T07:03:37.682Z,63.41
2022-08-07T07:06:11.045Z,64.45
2022-08-07T07:08:46.830Z,65.42
2022-08-07T07:12:07.748Z,65.93
2022-08-07T07:14:05.249Z,65.58
2022-08-07T07:16:49.550Z,66.34
2022-08-07T07:19:56.552Z,65.60
2022-08-07T07:22:35.783Z,64.95
2022-08-07T07:26:31.382Z,65.56
2022-08-07T07:28:42.249Z,64.28
2022-08-07T07:31:17.379Z,64.60
2022-08-07T07:33:57.063Z,63.60
2022-08-07T07:36:32.462Z,62.95
2022-08-07T07:39:02.589Z,63.16
2022-08-07T07:42:02.348Z,62.88
2022-08-07T07:44:26.549Z,62.06
2022-08-07T07:47:01.250Z,62.43
2022-08-07T07:50:35.013Z,62.46
2022-08-07T07:52:30.988Z,61.96
2022-08-07T07:55:01.023Z,60.07
2022-08-07T07:57:50.388Z,58.39
2022-08-07T08:00:29.479Z,56.20
2022-08-07T08:03:16.639Z,53.46
2022-08-07T08:05:57.923Z,50.84
2022-08-07T08:08:36.174Z,49.12
2022-08-07T08:11:08.331Z,48.97
2022-08-07T08:13:53.136Z,44.53
2022-08-07T08:16:29.597Z,42.08
2022-08-07T08:19:17.947Z,44.18
2022-08-07T08:22:11.500Z,42.50
2022-08-07T08:25:18.963Z,40.66
2022-08-07T08:27:57.154Z,40.98
2022-08-07T08:30:34.421Z,39.47
2022-08-07T08:33:10.584Z,38.96
2022-08-07T08:35:49.870Z,38.62
2022-08-07T08:38:29.324Z,37.64
2022-08-07T08:41:08.119Z,34.21
2022-08-07T08:43:55.830Z,31.76
2022-08-07T08:46:44.936Z,32.02
2022-08-07T08:49:33.217Z,30.05
2022-08-07T08:52:16.406Z,29.58
2022-08-07T08:54:59.518Z,27.99
2022-08-07T08:57:46.710Z,26.27
2022-08-07T09:00:16.835Z,24.57
2022-08-07T09:02:57.577Z,24.33
2022-08-07T09:05:43.550Z,23.79
2022-08-07T09:08:24.248Z,24.65
2022-08-07T09:11:24.255Z,22.46
2022-08-07T09:14:19.371Z,21.46
2022-08-07T09:16:47.595Z,22.48
2022-08-07T09:19:53.525Z,20.85
2022-08-07T09:24:31.835Z,20.64
2022-08-07T09:26:13.542Z,20.24
2022-08-07T09:30:04.150Z,19.97
2022-08-07T09:31:56.324Z,20.75
2022-08-07T09:34:45.134Z,21.04
2022-08-07T09:37:53.696Z,19.47
2022-08-07T09:40:59.649Z,19.24
2022-08-07T09:44:06.001Z,18.97
2022-08-07T09:47:50.342Z,18.29
2022-08-07T09:50:18.922Z,18.85
2022-08-07T09:52:52.506Z,19.41
2022-08-07T09:56:03.258Z,18.04
2022-08-07T09:58:48.803Z,18.08
2022-08-07T10:01:51.375Z,18.21
2022-08-07T10:04:47.760Z,19.68
2022-08-07T10:08:03.007Z,21.76
2022-08-07T10:11:59.705Z,22.03
2022-08-07T10:14:11.364Z,23.79
2022-08-07T10:17:17.255Z,24.86
2022-08-07T10:19:53.686Z,25.42
2022-08-07T10:22:51.000Z,26.21
2022-08-07T10:25:52.917Z,26.00
2022-08-07T10:28:36.961Z,26.85
2022-08-07T10:31:31.510Z,27.52
2022-08-07T10:34:52.140Z,28.07
2022-08-07T10:38:09.904Z,28.40
2022-08-07T10:40:45.388Z,29.07
2022-08-07T10:43:34.671Z,29.61
2022-08-07T10:46:13.547Z,29.86
2022-08-07T10:48:48.876Z,30.30
2022-08-07T10:51:39.456Z,30.64
2022-08-07T10:54:53.457Z,30.28
2022-08-07T10:57:46.043Z,30.63
2022-08-07T11:00:39.164Z,31.11
2022-08-07T11:03:37.819Z,31.58
2022-08-07T11:06:23.047Z,31.81
2022-08-07T11:09:11.200Z,32.46
2022-08-07T11:11:51.831Z,32.55
2022-08-07T11:14:45.968Z,34.06
2022-08-07T11:17:42.682Z,33.24
2022-08-07T11:20:18.298Z,33.74
2022-08-07T11:22:59.692Z,33.84
2022-08-07T11:25:47.962Z,33.73
2022-08-07T11:28:30.326Z,34.43
2022-08-07T11:31:13.548Z,34.04
2022-08-07T11:34:13.028Z,34.09
2022-08-07T11:37:17.420Z,34.33
2022-08-07T11:40:04.532Z,33.27
2022-08-07T11:42:43.101Z,33.95
2022-08-07T11:45:36.490Z,34.60
2022-08-07T11:48:29.069Z,34.90
2022-08-07T11:51:41.657Z,34.73
2022-08-07T11:54:35.915Z,34.84
2022-08-07T11:57:58.026Z,35.58
2022-08-07T12:00:28.529Z,35.57
2022-08-07T12:03:45.083Z,35.45
2022-08-07T12:06:39.200Z,34.44
2022-08-07T12:09:25.063Z,34.46
2022-08-07T12:12:09.502Z,34.75
2022-08-07T12:14:52.684Z,35.57
2022-08-07T12:17:33.490Z,36.35
2022-08-07T12:20:18.540Z,35.64
2022-08-07T12:24:05.032Z,34.93
2022-08-07T12:26:29.763Z,35.28
2022-08-07T12:29:09.618Z,34.84
2022-08-07T12:31:53.272Z,35.51
2022-08-07T12:34:34.625Z,35.91
2022-08-07T12:37:11.143Z,36.29
2022-08-07T12:39:51.540Z,36.51
2022-08-07T12:42:32.058Z,36.52
2022-08-07T12:45:11.941Z,35.89
2022-08-07T12:47:50.132Z,36.09
2022-08-07T12:50:40.078Z,35.99
2022-08-07T12:54:24.269Z,35.68
2022-08-07T12:56:51.192Z,35.64
2022-08-07T12:59:33.040Z,35.52
2022-08-07T13:02:33.319Z,35.42
2022-08-07T13:06:04.997Z,35.90
2022-08-07T13:08:38.783Z,36.27
2022-08-07T13:11:09.740Z,36.06
2022-08-07T13:14:01.800Z,35.99
2022-08-07T13:16:56.432Z,36.10
2022-08-07T13:19:50.814Z,35.92
2022-08-07T13:22:32.662Z,35.97
2022-08-07T13:25:06.852Z,35.78
2022-08-07T13:28:11.369Z,36.00
2022-08-07T13:30:41.399Z,35.65
2022-08-07T13:34:30.594Z,34.84
2022-08-07T13:36:40.563Z,35.57
2022-08-07T13:39:28.377Z,35.68
2022-08-07T13:42:14.721Z,35.49
2022-08-07T13:45:20.488Z,35.84
2022-08-07T13:48:07.881Z,35.37
2022-08-07T13:50:32.719Z,34.99
2022-08-07T13:53:08.056Z,35.42
2022-08-07T13:55:54.234Z,35.28
2022-08-07T13:58:50.401Z,35.60
2022-08-07T14:01:27.489Z,35.57
2022-08-07T14:04:12.978Z,35.21
2022-08-07T14:06:50.263Z,34.87
2022-08-07T14:10:12.081Z,34.98
2022-08-07T14:12:36.207Z,34.79
2022-08-07T14:15:23.718Z,35.10
2022-08-07T14:18:27.669Z,35.07
2022-08-07T14:20:49.318Z,35.42
2022-08-07T14:23:59.167Z,34.67
2022-08-07T14:26:29.903Z,34.79
2022-08-07T14:29:10.413Z,34.77
2022-08-07T14:31:53.420Z,34.80
2022-08-07T14:34:30.337Z,34.64
2022-08-07T14:37:03.425Z,34.67
2022-08-07T14:40:16.870Z,34.68
2022-08-07T14:42:31.502Z,35.35
2022-08-07T14:45:21.310Z,35.73
2022-08-07T14:47:53.040Z,35.29
2022-08-07T14:50:28.919Z,35.12
2022-08-07T14:58:54.129Z,35.08
2022-08-07T15:04:21.870Z,34.82
2022-08-07T15:06:53.486Z,34.98
2022-08-07T15:09:59.120Z,34.84
2022-08-07T15:12:25.994Z,34.91
2022-08-07T15:15:17.359Z,35.03
2022-08-07T15:17:56.963Z,35.15
2022-08-07T15:20:35.591Z,35.29
2022-08-07T15:23:16.953Z,35.15
2022-08-07T15:25:55.663Z,35.05
2022-08-07T15:32:01.361Z,35.42
2022-08-07T15:34:15.058Z,34.93
2022-08-07T15:37:04.247Z,35.17
2022-08-07T15:39:57.163Z,35.18
2022-08-07T15:42:46.757Z,35.53
2022-08-07T15:45:25.011Z,35.56
2022-08-07T15:48:12.846Z,35.28
2022-08-07T15:53:53.301Z,34.99
2022-08-07T15:56:43.059Z,35.18
2022-08-07T15:59:20.295Z,34.99
2022-08-07T16:02:10.289Z,34.58
2022-08-07T16:04:45.409Z,34.93
2022-08-07T16:08:31.646Z,34.87
2022-08-07T16:10:16.466Z,34.57
2022-08-07T16:13:17.754Z,34.40
2022-08-07T16:16:48.417Z,34.67
2022-08-07T16:19:59.774Z,34.77
2022-08-07T16:22:54.642Z,34.37
2022-08-07T16:25:56.706Z,34.64
2022-08-07T16:30:07.885Z,34.95
2022-08-07T16:32:03.970Z,34.81
2022-08-07T16:34:48.820Z,34.99
2022-08-07T16:38:04.243Z,35.17
2022-08-07T16:41:04.286Z,35.26
2022-08-07T16:44:53.609Z,35.18
2022-08-07T16:47:45.397Z,35.36
2022-08-07T16:50:38.689Z,35.42
2022-08-07T16:54:01.942Z,35.51
2022-08-07T16:56:19.351Z,35.27
2022-08-07T16:59:44.148Z,35.24
2022-08-07T17:02:54.223Z,35.55
2022-08-07T17:06:02.060Z,35.82
2022-08-07T17:08:09.902Z,35.83
2022-08-07T17:10:54.778Z,35.78
2022-08-07T17:14:19.279Z,35.82
2022-08-07T17:16:45.242Z,35.93
2022-08-07T17:20:02.989Z,36.08
2022-08-07T17:22:45.527Z,36.34
2022-08-07T17:25:47.775Z,36.60
2022-08-07T17:28:25.301Z,36.68
2022-08-07T17:31:16.541Z,36.94
2022-08-07T17:34:15.274Z,37.43
2022-08-07T17:36:59.979Z,37.53
2022-08-07T17:40:03.337Z,37.55
2022-08-07T17:42:58.225Z,37.69
2022-08-07T17:45:35.320Z,37.97
2022-08-07T17:48:12.850Z,38.24
2022-08-07T17:51:01.638Z,38.36
2022-08-07T17:54:00.796Z,38.66
2022-08-07T17:56:36.567Z,38.85
2022-08-07T17:59:25.632Z,38.89
2022-08-07T18:02:56.544Z,39.12
2022-08-07T18:06:03.122Z,39.26
2022-08-07T18:09:01.373Z,39.69
2022-08-07T18:12:16.353Z,39.93
2022-08-07T18:14:51.127Z,40.37
2022-08-07T18:18:46.372Z,40.42
2022-08-07T18:21:12.328Z,40.64
2022-08-07T18:23:56.108Z,40.99
2022-08-07T18:27:11.483Z,41.47
2022-08-07T18:30:08.389Z,41.49
2022-08-07T18:33:12.081Z,41.93
2022-08-07T18:35:58.718Z,41.87
2022-08-07T18:38:55.037Z,42.19
2022-08-07T18:41:53.952Z,42.51
2022-08-07T18:44:31.940Z,42.67
2022-08-07T18:47:08.671Z,42.96
2022-08-07T18:50:30.761Z,43.48
2022-08-07T18:53:04.582Z,43.43
2022-08-07T18:56:16.111Z,43.97
2022-08-07T18:59:47.159Z,43.81
2022-08-07T19:02:33.160Z,43.92
2022-08-07T19:05:15.106Z,44.03
2022-08-07T19:07:57.436Z,44.19
2022-08-07T19:10:55.766Z,44.10
2022-08-07T19:13:50.051Z,43.99
2022-08-07T19:17:06.430Z,44.08
2022-08-07T19:20:28.986Z,44.43
2022-08-07T19:23:18.685Z,44.45
2022-08-07T19:26:21.587Z,44.65
2022-08-07T19:30:55.781Z,44.49
2022-08-07T19:32:08.236Z,44.57
2022-08-07T19:34:38.585Z,45.09
2022-08-07T19:37:17.264Z,45.85
2022-08-07T19:39:57.199Z,46.48
2022-08-07T19:42:30.587Z,46.60
2022-08-07T19:45:08.505Z,46.51
2022-08-07T19:47:41.957Z,46.87
2022-08-07T19:50:44.510Z,47.20
2022-08-07T19:53:00.995Z,47.18
2022-08-07T19:55:56.365Z,47.39
2022-08-07T19:58:27.983Z,47.94
2022-08-07T20:00:58.540Z,48.05
2022-08-07T20:03:33.569Z,48.22
2022-08-07T20:06:15.397Z,48.49
2022-08-07T20:09:01.789Z,49.13
2022-08-07T20:12:01.368Z,48.99
2022-08-07T20:14:31.624Z,48.94
2022-08-07T20:17:03.500Z,49.56
2022-08-07T20:19:48.219Z,49.29
2022-08-07T20:22:34.182Z,49.56
2022-08-07T20:25:19.534Z,50.11
2022-08-07T20:27:58.122Z,50.49
2022-08-07T20:30:40.248Z,50.32
2022-08-07T20:33:24.302Z,51.30
2022-08-07T20:36:07.428Z,51.73
2022-08-07T20:38:53.273Z,51.58
2022-08-07T20:41:34.030Z,51.70
2022-08-07T20:44:12.340Z,52.13
2022-08-07T20:46:43.937Z,51.88
2022-08-07T20:49:59.871Z,51.61
2022-08-07T20:52:09.331Z,52.08
2022-08-07T20:54:53.766Z,52.15
2022-08-07T20:57:25.110Z,52.25
2022-08-07T21:00:04.484Z,52.36
2022-08-07T21:03:00.775Z,52.65
2022-08-07T21:05:51.280Z,52.60
2022-08-07T21:08:39.332Z,52.66
2022-08-07T21:11:14.579Z,52.74
2022-08-07T21:14:20.237Z,52.98
2022-08-07T21:16:56.253Z,53.24
2022-08-07T21:19:51.757Z,53.45
2022-08-07T21:22:28.211Z,54.23
2022-08-07T21:25:12.094Z,54.91
2022-08-07T21:27:53.593Z,55.23
2022-08-07T21:30:26.147Z,55.03
2022-08-07T21:33:05.020Z,54.76
2022-08-07T21:36:04.999Z,54.71
2022-08-07T21:39:47.373Z,54.92
2022-08-07T21:42:41.802Z,54.93
2022-08-07T21:46:04.749Z,54.98
2022-08-07T21:48:28.905Z,55.10
2022-08-07T21:51:19.993Z,55.34
2022-08-07T21:53:55.156Z,55.72
2022-08-07T21:56:47.027Z,55.57
2022-08-07T22:00:20.444Z,55.93
2022-08-07T22:02:56.723Z,56.09
2022-08-07T22:05:45.333Z,56.41
2022-08-07T22:08:18.464Z,56.29
2022-08-07T22:10:55.203Z,56.08
2022-08-07T22:13:52.102Z,56.36
2022-08-07T22:16:42.256Z,56.28
2022-08-07T22:19:29.949Z,56.93
2022-08-07T22:22:17.947Z,56.68
2022-08-07T22:25:08.212Z,57.05
2022-08-07T22:28:07.489Z,57.29
2022-08-07T22:30:52.043Z,57.44
2022-08-07T22:33:53.037Z,57.91
2022-08-07T22:36:31.472Z,58.30
2022-08-07T22:39:05.153Z,58.28
2022-08-07T22:42:03.540Z,58.00
2022-08-07T22:44:58.238Z,58.67
2022-08-07T22:48:31.325Z,58.88
2022-08-07T22:51:04.593Z,58.89
2022-08-07T22:54:07.982Z,59.09
2022-08-07T22:56:57.730Z,59.32
2022-08-07T22:59:50.204Z,59.76
2022-08-07T23:02:31.440Z,59.74
2022-08-07T23:06:07.698Z,59.95
2022-08-07T23:10:06.414Z,60.12
2022-08-07T23:12:00.891Z,60.09
2022-08-07T23:14:49.484Z,60.32
2022-08-07T23:17:47.024Z,59.86
2022-08-07T23:20:53.143Z,59.87
2022-08-07T23:24:05.318Z,59.93
2022-08-07T23:26:57.730Z,60.02
2022-08-07T23:30:38.398Z,59.90
2022-08-07T23:34:21.804Z,59.94
2022-08-07T23:35:55.818Z,59.85
2022-08-07T23:38:47.019Z,59.80
2022-08-07T23:42:01.750Z,59.72
2022-08-07T23:45:15.377Z,59.55
2022-08-07T23:48:25.176Z,59.60
2022-08-07T23:52:53.471Z,59.61
2022-08-07T23:54:04.802Z,59.25
2022-08-07T23:56:53.816Z,59.26
